Time;durP1;ratioP1;P1;durP2;ratioP2;P2;SDS_P1;SDS_P2;PMS_P1;PMS_P2;Temp;Humidity;BMP_temperature;BMP_pressure;BME280_temperature;BME280_humidity;BME280_pressure;Samples;Min_cycle;Max_cycle;Signal;HPM_P1;HPM_P2
2022/09/20 00:01:02;275303.00;0.92;475.46;71229.00;0.24;123.88;;;;;15.90;1.00;;;;;;2272230;61;1386;-87
2022/09/20 00:03:29;526505.00;1.76;907.47;117184.00;0.39;203.22;;;;;15.80;1.00;;;;;;2272287;61;1137;-87
2022/09/20 00:06:00;321418.00;1.07;554.74;71958.00;0.24;125.14;;;;;15.70;1.00;;;;;;2272264;61;1065;-87
2022/09/20 00:08:28;303198.00;1.01;523.42;73816.00;0.25;128.35;;;;;15.90;1.00;;;;;;2272269;61;1110;-86
2022/09/20 00:11:00;539868.00;1.80;930.50;113373.00;0.38;196.65;;;;;16.10;1.00;;;;;;2272191;61;1345;-85
2022/09/20 00:13:28;216178.00;0.72;373.77;0.00;0.00;0.62;;;;;16.40;1.00;;;;;;2272123;61;1182;-86
2022/09/20 00:15:55;199839.00;0.67;345.65;0.00;0.00;0.62;;;;;16.60;1.00;;;;;;2272276;61;979;-86
2022/09/20 00:18:21;179498.00;0.60;310.63;0.00;0.00;0.62;;;;;16.60;1.00;;;;;;2272092;61;1922;-86
2022/09/20 00:20:50;393628.00;1.31;678.85;75293.00;0.25;130.91;;;;;16.50;1.00;;;;;;2272267;61;1052;-86
2022/09/20 00:23:17;353444.00;1.18;609.78;76178.00;0.25;132.43;;;;;16.20;1.00;;;;;;2272216;61;970;-86
2022/09/20 00:25:53;563090.00;1.88;970.53;72782.00;0.24;126.57;;;;;16.10;1.00;;;;;;2272226;61;1064;-85
2022/09/20 00:28:20;296919.00;0.99;512.62;0.00;0.00;0.62;;;;;16.30;1.00;;;;;;2272158;61;1502;-86
2022/09/20 00:30:48;320173.00;1.07;552.60;0.00;0.00;0.62;;;;;16.20;1.00;;;;;;2272205;61;1144;-86
2022/09/20 00:33:15;352305.00;1.17;607.82;0.00;0.00;0.62;;;;;16.00;1.00;;;;;;2272178;61;1431;-86
2022/09/20 00:35:42;163818.00;0.55;283.62;0.00;0.00;0.62;;;;;15.80;1.00;;;;;;2272181;61;1011;-86
2022/09/20 00:38:09;432018.00;1.44;744.86;75168.00;0.25;130.69;;;;;15.60;1.00;;;;;;2272114;61;2004;-87
2022/09/20 00:40:36;370050.00;1.23;638.32;104133.00;0.35;180.71;;;;;15.30;1.00;;;;;;2272203;61;996;-86
2022/09/20 00:43:04;256123.00;0.85;442.48;72043.00;0.24;125.29;;;;;15.30;1.00;;;;;;2271074;61;1546;-85
2022/09/20 00:45:31;358362.00;1.19;618.23;70701.00;0.24;122.97;;;;;15.00;1.00;;;;;;2268890;61;1082;-84
2022/09/20 00:48:04;293478.00;0.98;506.71;76508.00;0.26;133.00;;;;;15.10;1.00;;;;;;2268834;61;935;-86
2022/09/20 00:50:37;411184.00;1.37;709.03;79460.00;0.26;138.10;;;;;15.00;1.00;;;;;;2268802;61;1768;-86
2022/09/20 00:53:09;647376.00;2.16;1116.10;215165.00;0.72;372.02;;;;;15.00;1.00;;;;;;2269312;61;1372;-87
2022/09/20 00:55:42;235146.00;0.78;406.40;76015.00;0.25;132.15;;;;;15.00;1.00;;;;;;2272919;61;936;-87
2022/09/20 00:58:12;287753.00;0.96;496.87;70549.00;0.24;122.71;;;;;15.20;1.00;;;;;;2272807;61;1926;-88
2022/09/20 01:00:40;461160.00;1.54;794.98;72099.00;0.24;125.39;;;;;15.60;1.00;;;;;;2272755;61;1512;-87
2022/09/20 01:03:10;421515.00;1.41;726.80;72698.00;0.24;126.42;;;;;15.80;1.00;;;;;;2272748;61;1415;-87
2022/09/20 01:05:39;387593.00;1.29;668.48;73504.00;0.25;127.81;;;;;16.00;1.00;;;;;;2272757;61;1558;-86
2022/09/20 01:08:07;218088.00;0.73;377.05;60661.00;0.20;105.62;;;;;16.00;1.00;;;;;;2272814;61;1168;-86
2022/09/20 01:10:34;310224.00;1.03;535.49;74006.00;0.25;128.68;;;;;16.20;1.00;;;;;;2272779;61;1090;-87
2022/09/20 01:13:01;233680.00;0.78;403.88;72242.00;0.24;125.63;;;;;15.80;1.00;;;;;;2272688;61;1373;-86
2022/09/20 01:15:32;210664.00;0.70;364.28;73512.00;0.25;127.83;;;;;15.30;1.00;;;;;;2272810;61;1022;-88
2022/09/20 01:18:02;292101.00;0.97;504.34;76298.00;0.25;132.64;;;;;14.90;1.00;;;;;;2272743;61;971;-87
2022/09/20 01:20:33;315398.00;1.05;544.39;55774.00;0.19;97.17;;;;;14.60;1.00;;;;;;2272762;61;2010;-87
2022/09/20 01:23:27;328385.00;1.09;566.71;72546.00;0.24;126.16;;;;;14.50;1.00;;;;;;2272650;61;1592;-88
2022/09/20 01:26:27;201542.00;0.67;348.58;0.00;0.00;0.62;;;;;14.50;1.00;;;;;;2266843;61;1066;-88
2022/09/20 01:29:08;199014.00;0.66;344.23;18398.00;0.06;32.50;;;;;14.60;1.00;;;;;;2268635;61;931;-88
2022/09/20 01:31:44;90763.00;0.30;157.63;0.00;0.00;0.62;;;;;15.10;1.00;;;;;;2268646;61;1517;-87
2022/09/20 01:34:15;18839.00;0.06;33.26;0.00;0.00;0.62;;;;;15.60;1.00;;;;;;2268668;61;1040;-88
2022/09/20 01:36:49;198339.00;0.66;343.06;0.00;0.00;0.62;;;;;16.10;1.00;;;;;;2268655;61;1078;-87
2022/09/20 01:39:28;452111.00;1.51;779.41;41451.00;0.14;72.40;;;;;16.00;1.00;;;;;;2268584;61;2002;-87
2022/09/20 01:42:03;329849.00;1.10;569.23;96816.00;0.32;168.08;;;;;15.70;1.00;;;;;;2270957;61;1455;-86
2022/09/20 01:44:40;367120.00;1.22;633.29;0.00;0.00;0.62;;;;;15.40;1.00;;;;;;2268613;61;1149;-85
2022/09/20 01:47:19;230722.00;0.77;398.79;0.00;0.00;0.62;;;;;15.00;1.00;;;;;;2268621;61;1466;-89
2022/09/20 01:50:08;259946.00;0.87;449.06;0.00;0.00;0.62;;;;;14.60;1.00;;;;;;2268625;61;1129;-87
2022/09/20 01:52:59;94747.00;0.32;164.50;0.00;0.00;0.62;;;;;14.60;1.00;;;;;;2268607;61;1305;-86
2022/09/20 01:56:00;54503.00;0.18;94.97;0.00;0.00;0.62;;;;;15.10;1.00;;;;;;2268634;61;1105;-87
2022/09/20 01:59:06;89980.00;0.30;156.27;0.00;0.00;0.62;;;;;15.30;1.00;;;;;;2268558;61;1907;-89
2022/09/20 02:02:17;230827.00;0.77;398.97;0.00;0.00;0.62;;;;;15.70;1.00;;;;;;2268512;61;1670;-87
2022/09/20 02:05:29;114131.00;0.38;197.96;0.00;0.00;0.62;;;;;15.90;1.00;;;;;;2266697;61;2345;-87
2022/09/20 02:08:25;0.00;0.00;0.62;0.00;0.00;0.62;;;;;15.80;1.00;;;;;;2268567;61;1401;-88
2022/09/20 02:11:09;9548.00;0.03;17.17;0.00;0.00;0.62;;;;;15.10;1.00;;;;;;2268595;61;1355;-88
2022/09/20 02:13:58;64454.00;0.21;112.18;0.00;0.00;0.62;;;;;14.50;1.00;;;;;;2268362;61;1072;-88
2022/09/20 02:16:45;376402.00;1.25;649.24;52272.00;0.17;91.12;;;;;13.90;1.00;;;;;;2268498;61;1068;-88
2022/09/20 02:19:34;54655.00;0.18;95.24;0.00;0.00;0.62;;;;;13.70;1.00;;;;;;2268513;61;1980;-88
2022/09/20 02:22:23;118594.00;0.40;205.66;0.00;0.00;0.62;;;;;14.10;1.00;;;;;;2268523;61;1368;-88
2022/09/20 02:24:58;40220.00;0.13;70.27;0.00;0.00;0.62;;;;;14.50;1.00;;;;;;2268538;61;1008;-87
2022/09/20 02:27:36;20069.00;0.07;35.39;0.00;0.00;0.62;;;;;15.00;1.00;;;;;;2268559;61;1089;-88
2022/09/20 02:30:18;69671.00;0.23;121.19;0.00;0.00;0.62;;;;;14.70;1.00;;;;;;2268496;61;1066;-87
2022/09/20 02:33:12;282946.00;0.94;488.60;0.00;0.00;0.62;;;;;14.60;1.00;;;;;;2268520;61;1482;-88
2022/09/20 02:35:52;72843.00;0.24;126.67;0.00;0.00;0.62;;;;;14.10;1.00;;;;;;2268535;61;1131;-87
2022/09/20 02:38:42;278964.00;0.93;481.76;17915.00;0.06;31.66;;;;;14.10;1.00;;;;;;2268521;61;1505;-88
2022/09/20 02:41:52;144478.00;0.48;250.29;0.00;0.00;0.62;;;;;14.30;1.00;;;;;;2268446;61;1296;-88
2022/09/20 02:44:30;265825.00;0.89;459.17;0.00;0.00;0.62;;;;;14.20;1.00;;;;;;2265751;61;1399;-88
2022/09/20 02:47:07;188501.00;0.63;326.13;0.00;0.00;0.62;;;;;14.00;1.00;;;;;;2268489;61;1101;-88
2022/09/20 02:49:45;257447.00;0.86;444.76;0.00;0.00;0.62;;;;;14.40;1.00;;;;;;2268470;61;997;-88
2022/09/20 02:52:21;125835.00;0.42;218.15;0.00;0.00;0.62;;;;;14.70;1.00;;;;;;2268404;61;1350;-88
2022/09/20 02:54:59;216226.00;0.72;373.85;0.00;0.00;0.62;;;;;14.80;1.00;;;;;;2268361;61;952;-87
2022/09/20 02:57:37;115801.00;0.39;200.84;0.00;0.00;0.62;;;;;14.80;1.00;;;;;;2268480;61;1067;-88
2022/09/20 03:00:09;96556.00;0.32;167.63;0.00;0.00;0.62;;;;;14.80;1.00;;;;;;2268420;61;1911;-87
2022/09/20 03:02:50;265062.00;0.88;457.85;11024.00;0.04;19.72;;;;;14.50;1.00;;;;;;2268323;61;1531;-86
2022/09/20 03:05:23;259931.00;0.87;449.03;0.00;0.00;0.62;;;;;14.40;1.00;;;;;;2268209;61;1113;-87
2022/09/20 03:08:13;232781.00;0.78;402.33;0.00;0.00;0.62;;;;;14.70;1.00;;;;;;2268401;61;997;-87
2022/09/20 03:10:57;168378.00;0.56;291.47;0.00;0.00;0.62;;;;;15.00;1.00;;;;;;2268317;61;1604;-87
2022/09/20 03:13:37;250242.00;0.83;432.37;86468.00;0.29;150.21;;;;;15.10;1.00;;;;;;2268200;61;1564;-87
2022/09/20 03:16:16;214265.00;0.71;370.48;0.00;0.00;0.62;;;;;14.90;1.00;;;;;;2268345;61;1003;-88
2022/09/20 03:18:54;148512.00;0.50;257.24;0.00;0.00;0.62;;;;;15.10;1.00;;;;;;2268350;61;1907;-87
2022/09/20 03:21:37;154466.00;0.51;267.50;0.00;0.00;0.62;;;;;15.50;1.00;;;;;;2268285;61;1471;-87
2022/09/20 03:24:18;355985.00;1.19;614.15;0.00;0.00;0.62;;;;;15.80;1.00;;;;;;2268322;61;1074;-87
2022/09/20 03:26:56;140665.00;0.47;243.72;0.00;0.00;0.62;;;;;15.40;1.00;;;;;;2268379;61;1078;-86
2022/09/20 03:29:41;260320.00;0.87;449.70;0.00;0.00;0.62;;;;;15.70;1.00;;;;;;2268333;61;1090;-86
2022/09/20 03:32:28;99169.00;0.33;172.14;0.00;0.00;0.62;;;;;15.90;1.00;;;;;;2268238;61;1445;-88
2022/09/20 03:35:14;146094.00;0.49;253.08;0.00;0.00;0.62;;;;;15.70;1.00;;;;;;2268323;61;897;-86
2022/09/20 03:37:56;156376.00;0.52;270.80;0.00;0.00;0.62;;;;;15.50;1.00;;;;;;2268260;61;1054;-88
2022/09/20 03:40:59;191340.00;0.64;331.02;59712.00;0.20;103.98;;;;;15.00;1.00;;;;;;2268294;61;1976;-87
2022/09/20 03:43:41;255927.00;0.85;442.14;67332.00;0.22;117.15;;;;;15.20;1.00;;;;;;2268325;61;1077;-87
2022/09/20 03:46:18;195692.00;0.65;338.51;75681.00;0.25;131.58;;;;;15.30;1.00;;;;;;2268246;61;1637;-87
2022/09/20 03:49:19;118791.00;0.40;206.00;11257.00;0.04;20.13;;;;;15.50;1.00;;;;;;2268292;61;1089;-87
2022/09/20 03:52:00;60046.00;0.20;104.56;0.00;0.00;0.62;;;;;15.50;1.00;;;;;;2268329;61;1281;-87
2022/09/20 03:54:49;10807.00;0.04;19.35;0.00;0.00;0.62;;;;;15.40;1.00;;;;;;2268295;61;1114;-87
2022/09/20 03:57:39;290456.00;0.97;501.51;40709.00;0.14;71.12;;;;;15.40;1.00;;;;;;2268293;61;898;-87
2022/09/20 04:00:22;112616.00;0.38;195.34;0.00;0.00;0.62;;;;;15.60;1.00;;;;;;2267426;61;2150;-87
2022/09/20 04:03:26;73101.00;0.24;127.12;0.00;0.00;0.62;;;;;15.30;1.00;;;;;;2268259;61;1322;-89
2022/09/20 04:06:29;48607.00;0.16;84.78;0.00;0.00;0.62;;;;;15.10;1.00;;;;;;2263390;61;1223;-88
2022/09/20 04:09:25;256362.00;0.85;442.89;76365.00;0.25;132.76;;;;;14.80;1.00;;;;;;2268104;61;1023;-87
2022/09/20 04:12:01;53604.00;0.18;93.42;0.00;0.00;0.62;;;;;15.10;1.00;;;;;;2264666;61;1604;-86
2022/09/20 04:14:38;261531.00;0.87;451.78;71424.00;0.24;124.22;;;;;14.90;1.00;;;;;;2268126;61;1046;-88
2022/09/20 04:17:23;292744.00;0.98;505.45;71560.00;0.24;124.46;;;;;15.20;1.00;;;;;;2268101;61;1039;-86
2022/09/20 04:19:58;376798.00;1.26;649.92;67852.00;0.23;118.05;;;;;15.20;1.00;;;;;;2268119;61;1927;-87
2022/09/20 04:28:04;854063.00;2.85;1475.58;197536.00;0.66;341.68;;;;;14.70;1.00;;;;;;2474261;40;1991;-87
2022/09/20 04:30:37;210832.00;0.70;364.57;0.00;0.00;0.62;;;;;14.80;1.00;;;;;;2276152;61;1097;-88
2022/09/20 04:33:14;95605.00;0.32;165.99;0.00;0.00;0.62;;;;;15.00;1.00;;;;;;2272426;61;1274;-87
2022/09/20 04:38:34;152697.00;0.51;264.46;0.00;0.00;0.62;;;;;14.80;1.00;;;;;;2272271;61;576;-87
2022/09/20 04:41:20;137226.00;0.46;237.79;19455.00;0.06;34.33;;;;;14.50;1.00;;;;;;2272039;61;2015;-88
2022/09/20 04:44:28;134766.00;0.45;233.55;0.00;0.00;0.62;;;;;14.50;1.00;;;;;;2272194;61;1233;-86
2022/09/20 04:47:28;82131.00;0.27;142.72;0.00;0.00;0.62;;;;;14.70;1.00;;;;;;2268520;61;1531;-87
2022/09/20 04:50:33;89777.00;0.30;155.92;0.00;0.00;0.62;;;;;15.00;1.00;;;;;;2271197;61;1208;-87
2022/09/20 04:53:43;258084.00;0.86;445.85;10789.00;0.04;19.32;;;;;15.40;1.00;;;;;;2272160;61;1429;-87
2022/09/20 04:56:20;100030.00;0.33;173.62;0.00;0.00;0.62;;;;;15.70;1.00;;;;;;2272142;61;1560;-87
2022/09/20 04:59:05;109499.00;0.36;189.97;0.00;0.00;0.62;;;;;15.90;1.00;;;;;;2272221;61;1019;-86
2022/09/20 05:02:12;136740.00;0.46;236.95;0.00;0.00;0.62;;;;;15.60;1.00;;;;;;2272125;61;1997;-88
2022/09/20 05:05:13;575978.00;1.92;992.76;0.00;0.00;0.62;;;;;15.60;1.00;;;;;;2272103;61;1528;-86
2022/09/20 05:08:17;82349.00;0.27;143.09;0.00;0.00;0.62;;;;;15.30;1.00;;;;;;2272099;61;1048;-87
2022/09/20 05:11:29;277419.00;0.92;479.10;0.00;0.00;0.62;;;;;15.30;1.00;;;;;;2272108;61;1450;-88
2022/09/20 05:14:30;54848.00;0.18;95.57;0.00;0.00;0.62;;;;;14.60;1.00;;;;;;2257514;61;1607;-89
2022/09/20 05:17:21;71179.00;0.24;123.80;0.00;0.00;0.62;;;;;14.70;1.00;;;;;;2268744;61;1368;-89
2022/09/20 05:20:12;270753.00;0.90;467.64;0.00;0.00;0.62;;;;;15.40;1.00;;;;;;2271992;61;2009;-86
2022/09/20 05:22:59;268737.00;0.90;464.17;0.00;0.00;0.62;;;;;15.50;1.00;;;;;;2272008;61;1339;-87
2022/09/20 05:26:03;362788.00;1.21;625.84;0.00;0.00;0.62;;;;;15.40;1.00;;;;;;2277600;55;3742;-88
2022/09/20 05:28:44;324439.00;1.08;559.93;0.00;0.00;0.62;;;;;14.70;1.00;;;;;;2275265;61;1177;-88
2022/09/20 05:31:16;414673.00;1.38;715.03;13358.00;0.04;23.77;;;;;14.60;1.00;;;;;;2276162;61;1365;-88
2022/09/20 05:33:56;215841.00;0.72;373.19;0.00;0.00;0.62;;;;;14.90;1.00;;;;;;2272750;61;1024;-87
2022/09/20 05:36:36;289710.00;0.97;500.23;0.00;0.00;0.62;;;;;15.10;1.00;;;;;;2272745;61;1137;-87
2022/09/20 05:39:21;282496.00;0.94;487.83;0.00;0.00;0.62;;;;;14.60;1.00;;;;;;2272787;61;996;-87
2022/09/20 05:41:57;159355.00;0.53;275.93;25570.00;0.09;44.91;;;;;14.80;1.00;;;;;;2272663;61;1672;-87
2022/09/20 05:44:38;19805.00;0.07;34.93;0.00;0.00;0.62;;;;;15.30;1.00;;;;;;2272704;61;1115;-88
2022/09/20 05:47:18;57714.00;0.19;100.52;0.00;0.00;0.62;;;;;15.60;1.00;;;;;;2272767;61;1311;-88
2022/09/20 05:49:59;206668.00;0.69;357.40;0.00;0.00;0.62;;;;;15.50;1.00;;;;;;2272612;61;1695;-87
2022/09/20 05:52:43;156266.00;0.52;270.61;0.00;0.00;0.62;;;;;15.50;1.00;;;;;;2272690;61;1327;-88
2022/09/20 05:55:39;426139.00;1.42;734.75;67229.00;0.22;116.97;;;;;15.00;1.00;;;;;;2276687;55;3715;-89
2022/09/20 05:58:34;363780.00;1.21;627.55;74144.00;0.25;128.92;;;;;15.10;1.00;;;;;;2276288;61;1361;-88
2022/09/20 06:01:09;310957.00;1.04;536.75;0.00;0.00;0.62;;;;;15.40;1.00;;;;;;2276416;61;1982;-88
2022/09/20 06:03:42;383888.00;1.28;662.11;62835.00;0.21;109.38;;;;;15.30;1.00;;;;;;2272665;61;1566;-89
2022/09/20 06:06:17;267830.00;0.89;462.61;66335.00;0.22;115.43;;;;;15.00;1.00;;;;;;2272616;61;1085;-88
2022/09/20 06:09:36;416318.00;1.39;717.86;58062.00;0.19;101.13;;;;;15.40;1.00;;;;;;2272543;61;981;-88
2022/09/20 06:12:26;222838.00;0.74;385.23;0.00;0.00;0.62;;;;;15.00;1.00;;;;;;2256026;61;1346;-87
2022/09/20 06:15:03;268488.00;0.89;463.74;33011.00;0.11;57.79;;;;;15.40;1.00;;;;;;2254708;61;1387;-88
2022/09/20 06:17:36;108810.00;0.36;188.78;0.00;0.00;0.62;;;;;15.30;1.00;;;;;;2255957;61;1592;-88
2022/09/20 06:20:18;529554.00;1.77;912.72;162856.00;0.54;281.96;;;;;15.60;1.00;;;;;;2255985;61;1969;-87
2022/09/20 06:22:49;139277.00;0.46;241.32;0.00;0.00;0.62;;;;;15.40;1.00;;;;;;2256043;61;1465;-87
2022/09/20 06:25:21;130802.00;0.44;226.71;0.00;0.00;0.62;;;;;14.70;1.00;;;;;;2256062;61;1084;-87
2022/09/20 06:27:53;466055.00;1.55;803.40;952.00;0.00;2.27;;;;;14.30;1.00;;;;;;2255934;61;966;-87
2022/09/20 06:30:27;479012.00;1.60;825.70;0.00;0.00;0.62;;;;;14.50;1.00;;;;;;2255930;61;1691;-88
2022/09/20 06:35:27;700596.00;2.34;1208.27;0.00;0.00;0.62;;;;;14.50;1.00;;;;;;2274049;61;1404;-87
2022/09/20 06:48:01;1775742.00;5.92;3173.56;11064.00;0.04;19.79;;;;;14.60;1.00;;;;;;2266777;61;1007;-90
2022/09/20 07:12:59;1266633.00;4.22;2211.17;133046.00;0.44;230.58;;;;;15.90;1.00;;;;;;2275145;61;1349;-91
2022/09/20 07:15:27;297624.00;0.99;513.84;73444.00;0.24;127.71;;;;;15.80;1.00;;;;;;2273055;61;1730;-88
2022/09/20 07:17:54;396201.00;1.32;683.27;73588.00;0.25;127.96;;;;;15.70;1.00;;;;;;2272931;61;1141;-89
2022/09/20 07:20:21;395293.00;1.32;681.71;75065.00;0.25;130.51;;;;;15.80;1.00;;;;;;2273044;61;1990;-90
2022/09/20 07:22:49;412653.00;1.38;711.56;65704.00;0.22;114.34;;;;;16.20;1.00;;;;;;2272970;61;1237;-89
2022/09/20 07:25:17;449345.00;1.50;774.66;73699.00;0.25;128.15;;;;;16.40;1.00;;;;;;2273024;61;824;-91
2022/09/20 07:27:45;499491.00;1.66;860.95;70076.00;0.23;121.89;;;;;16.50;1.00;;;;;;2273063;61;875;-90
2022/09/20 07:30:14;486264.00;1.62;838.18;110239.00;0.37;191.24;;;;;16.50;1.00;;;;;;2272985;61;1610;-89
2022/09/20 07:32:41;362130.00;1.21;624.71;71889.00;0.24;125.02;;;;;16.10;1.00;;;;;;2272955;61;1680;-89
2022/09/20 07:35:09;760302.00;2.53;1311.98;109051.00;0.36;189.19;;;;;16.00;1.00;;;;;;2272945;61;1065;-89
2022/09/20 07:47:35;1687860.00;5.63;3001.86;53491.00;0.18;93.22;;;;;16.90;1.00;;;;;;2300331;56;3618;-89
2022/09/20 07:52:31;984388.00;3.28;1704.84;101908.00;0.34;176.87;;;;;16.80;1.00;;;;;;2274024;61;1413;-88
2022/09/20 07:54:58;378009.00;1.26;652.00;72972.00;0.24;126.90;;;;;17.10;1.00;;;;;;2288555;40;3610;-89
2022/09/20 08:10:07;1232969.00;4.11;2149.94;155779.00;0.52;269.77;;;;;17.70;1.00;;;;;;2269482;61;1214;-86
2022/09/20 08:12:34;630021.00;2.10;1086.09;98048.00;0.33;170.20;;;;;18.10;1.00;;;;;;2268094;61;2328;-87
2022/09/20 08:15:01;763646.00;2.55;1317.79;103989.00;0.35;180.46;;;;;18.20;1.00;;;;;;2268095;61;1048;-86
2022/09/20 08:17:28;506216.00;1.69;872.53;68156.00;0.23;118.57;;;;;18.20;1.00;;;;;;2268209;61;1016;-87
2022/09/20 08:19:55;470611.00;1.57;811.24;68603.00;0.23;119.35;;;;;18.80;1.00;;;;;;2268284;61;929;-88
2022/09/20 08:22:22;492894.00;1.64;849.59;64078.00;0.21;111.53;;;;;19.20;1.00;;;;;;2268223;61;1281;-87
2022/09/20 08:24:49;347978.00;1.16;600.39;57662.00;0.19;100.43;;;;;18.80;1.00;;;;;;2268148;61;1043;-89
2022/09/20 08:27:18;546711.00;1.82;942.29;102203.00;0.34;177.37;;;;;19.00;1.00;;;;;;2268157;61;1074;-89
2022/09/20 08:29:45;343553.00;1.15;592.78;65502.00;0.22;113.99;;;;;19.20;1.00;;;;;;2268184;61;1980;-89
2022/09/20 08:32:12;583909.00;1.95;1006.44;68823.00;0.23;119.73;;;;;19.80;1.00;;;;;;2268180;61;1278;-88
2022/09/20 08:34:39;503143.00;1.68;867.24;59982.00;0.20;104.45;;;;;19.70;1.00;;;;;;2268211;61;924;-88
2022/09/20 08:37:06;619637.00;2.07;1068.14;64674.00;0.22;112.56;;;;;19.70;1.00;;;;;;2268219;61;1771;-89
2022/09/20 08:39:33;589303.00;1.96;1015.75;58920.00;0.20;102.61;;;;;19.90;1.00;;;;;;2268196;61;830;-85
2022/09/20 08:42:13;306258.00;1.02;528.68;69585.00;0.23;121.04;;;;;20.30;1.00;;;;;;2268159;61;1928;-87
2022/09/20 08:44:49;423346.00;1.41;729.94;69859.00;0.23;121.52;;;;;19.60;1.00;;;;;;2268196;61;928;-88
2022/09/20 08:47:21;565447.00;1.88;974.59;61570.00;0.21;107.19;;;;;19.30;1.00;;;;;;2268112;61;1639;-87
2022/09/20 08:49:51;797399.00;2.66;1376.59;68920.00;0.23;119.89;;;;;19.20;1.00;;;;;;2268169;61;1822;-86
2022/09/20 08:52:25;670571.00;2.24;1156.24;64773.00;0.22;112.73;;;;;18.80;1.00;;;;;;2268178;61;1543;-87
2022/09/20 08:54:52;602297.00;2.01;1038.19;73583.00;0.25;127.95;;;;;18.80;1.00;;;;;;2268195;61;1104;-88
2022/09/20 08:57:21;1157713.00;3.86;2013.95;134865.00;0.45;233.72;;;;;19.00;1.00;;;;;;2268080;61;903;-88
2022/09/20 08:59:52;593954.00;1.98;1023.78;61788.00;0.21;107.57;;;;;19.40;1.00;;;;;;2268145;61;1637;-89
2022/09/20 09:02:21;707336.00;2.36;1219.96;65349.00;0.22;113.72;;;;;19.10;1.00;;;;;;2268115;61;1997;-88
2022/09/20 09:04:52;923017.00;3.08;1596.58;109746.00;0.37;190.39;;;;;19.00;1.00;;;;;;2268657;61;1439;-87
2022/09/20 09:07:22;498358.00;1.66;859.00;74897.00;0.25;130.22;;;;;19.20;1.00;;;;;;2268847;61;1526;-88
2022/09/20 09:09:52;564150.00;1.88;972.36;43294.00;0.14;75.59;;;;;19.30;1.00;;;;;;2268785;61;1112;-87
2022/09/20 09:12:24;1138174.00;3.79;1978.83;174068.00;0.58;301.27;;;;;19.10;1.00;;;;;;2268694;61;1507;-86
2022/09/20 09:14:58;641234.00;2.14;1105.47;65626.00;0.22;114.20;;;;;18.80;1.00;;;;;;2268772;61;1414;-87
2022/09/20 09:17:27;1085960.00;3.62;1885.33;188312.00;0.63;325.80;;;;;19.10;1.00;;;;;;2268751;61;1579;-87
2022/09/20 09:19:56;671570.00;2.24;1157.97;62141.00;0.21;108.18;;;;;19.40;1.00;;;;;;2268809;61;1131;-89
2022/09/20 09:22:26;431794.00;1.44;744.47;57299.00;0.19;99.81;;;;;19.20;1.00;;;;;;2268611;61;2013;-89
2022/09/20 09:25:20;872493.00;2.91;1507.86;78002.00;0.26;135.59;;;;;18.20;1.00;;;;;;2268724;61;1017;-88
2022/09/20 09:27:56;560611.00;1.87;966.25;49145.00;0.16;85.71;;;;;18.10;1.00;;;;;;2268719;61;1437;-87
2022/09/20 09:30:27;562404.00;1.87;969.35;66743.00;0.22;116.13;;;;;17.80;1.00;;;;;;2268719;61;1126;-88
2022/09/20 09:33:24;375151.00;1.25;647.09;92192.00;0.31;160.09;;;;;18.10;1.00;;;;;;2268741;61;1440;-88
2022/09/20 09:35:57;148544.00;0.50;257.30;0.00;0.00;0.62;;;;;18.80;1.00;;;;;;2268706;61;1503;-86
2022/09/20 09:38:28;237298.00;0.79;410.10;0.00;0.00;0.62;;;;;19.10;1.00;;;;;;2268712;61;1132;-87
2022/09/20 09:40:57;725754.00;2.42;1251.93;41578.00;0.14;72.62;;;;;18.50;1.00;;;;;;2268539;61;1915;-86
2022/09/20 09:43:28;343609.00;1.15;592.88;0.00;0.00;0.62;;;;;18.50;1.00;;;;;;2268593;61;1573;-88
2022/09/20 09:46:17;279814.00;0.93;483.22;0.00;0.00;0.62;;;;;18.50;1.00;;;;;;2268662;61;1049;-87
2022/09/20 09:48:48;388849.00;1.30;670.64;52247.00;0.17;91.07;;;;;19.00;1.00;;;;;;2268665;61;1569;-87
2022/09/20 09:51:18;196072.00;0.65;339.16;0.00;0.00;0.62;;;;;19.10;1.00;;;;;;2268638;61;1378;-86
2022/09/20 09:53:47;544079.00;1.81;937.75;69869.00;0.23;121.53;;;;;19.10;1.00;;;;;;2268738;61;980;-85
2022/09/20 09:56:40;536701.00;1.79;925.04;57875.00;0.19;100.80;;;;;19.50;1.00;;;;;;2268706;61;977;-86
2022/09/20 09:59:23;311502.00;1.04;537.69;0.00;0.00;0.62;;;;;19.60;1.00;;;;;;2268742;61;912;-86
2022/09/20 10:02:01;308537.00;1.03;532.59;44778.00;0.15;78.15;;;;;19.50;1.00;;;;;;2268547;61;2009;-86
2022/09/20 10:04:37;320736.00;1.07;553.56;0.00;0.00;0.62;;;;;19.20;1.00;;;;;;2268605;61;2182;-88
2022/09/20 10:07:12;191027.00;0.64;330.48;0.00;0.00;0.62;;;;;19.50;1.00;;;;;;2268644;61;1724;-87
2022/09/20 10:10:04;150839.00;0.50;261.25;0.00;0.00;0.62;;;;;19.30;1.00;;;;;;2268659;61;1090;-88
2022/09/20 10:12:46;373593.00;1.25;644.41;0.00;0.00;0.62;;;;;19.20;1.00;;;;;;2268158;61;1316;-86
2022/09/20 10:15:29;344519.00;1.15;594.44;0.00;0.00;0.62;;;;;18.60;1.00;;;;;;2268455;61;1568;-86
2022/09/20 10:18:16;287582.00;0.96;496.57;0.00;0.00;0.62;;;;;18.80;1.00;;;;;;2268590;61;1448;-87
2022/09/20 10:20:59;153680.00;0.51;266.15;0.00;0.00;0.62;;;;;18.80;1.00;;;;;;2268589;61;2014;-87
2022/09/20 10:23:43;140345.00;0.47;243.17;0.00;0.00;0.62;;;;;19.50;1.00;;;;;;2268625;61;972;-86
2022/09/20 10:26:24;406299.00;1.35;700.63;0.00;0.00;0.62;;;;;19.40;1.00;;;;;;2268457;61;958;-87
2022/09/20 10:29:07;279783.00;0.93;483.16;0.00;0.00;0.62;;;;;19.60;1.00;;;;;;2268637;61;1020;-86
2022/09/20 10:31:52;388438.00;1.29;669.93;0.00;0.00;0.62;;;;;19.50;1.00;;;;;;2268533;61;1473;-86
2022/09/20 10:34:42;269021.00;0.90;464.66;0.00;0.00;0.62;;;;;19.20;1.00;;;;;;2268571;61;2182;-86
2022/09/20 10:37:19;247569.00;0.83;427.77;0.00;0.00;0.62;;;;;19.70;1.00;;;;;;2268628;61;995;-86
2022/09/20 10:39:59;566413.00;1.89;976.26;37191.00;0.12;65.03;;;;;20.10;1.00;;;;;;2268637;61;1115;-87
2022/09/20 10:45:48;357855.00;1.19;617.36;0.00;0.00;0.62;;;;;19.60;1.00;;;;;;2256104;61;1572;-88
2022/09/20 10:48:28;257805.00;0.86;445.37;0.00;0.00;0.62;;;;;19.60;1.00;;;;;;2267021;61;1138;-88
2022/09/20 10:51:01;246498.00;0.82;425.93;0.00;0.00;0.62;;;;;19.60;1.00;;;;;;2268270;61;1297;-87
2022/09/20 10:53:42;294853.00;0.98;509.07;0.00;0.00;0.62;;;;;19.40;1.00;;;;;;2268511;61;1099;-86
2022/09/20 10:56:24;404570.00;1.35;697.66;0.00;0.00;0.62;;;;;19.60;1.00;;;;;;2268421;61;1055;-88
2022/09/20 10:59:41;199026.00;0.66;344.25;0.00;0.00;0.62;;;;;19.80;1.00;;;;;;2268455;61;910;-87
2022/09/20 11:02:27;99706.00;0.33;173.06;0.00;0.00;0.62;;;;;19.30;1.00;;;;;;2251943;61;1993;-88
2022/09/20 11:05:09;215796.00;0.72;373.11;0.00;0.00;0.62;;;;;19.40;1.00;;;;;;2268491;61;1174;-88
2022/09/20 11:07:52;329451.00;1.10;568.54;0.00;0.00;0.62;;;;;19.90;1.00;;;;;;2268446;61;1170;-86
2022/09/20 11:10:25;267129.00;0.89;461.41;0.00;0.00;0.62;;;;;20.40;1.00;;;;;;2268335;61;1014;-86
2022/09/20 11:12:58;331702.00;1.11;572.41;0.00;0.00;0.62;;;;;20.70;1.00;;;;;;2268386;61;2114;-87
2022/09/20 11:15:31;504644.00;1.68;869.82;47204.00;0.16;82.35;;;;;20.10;1.00;;;;;;2268445;61;1106;-88
2022/09/20 11:18:08;196350.00;0.65;339.64;0.00;0.00;0.62;;;;;19.80;1.00;;;;;;2268378;61;1603;-86
2022/09/20 11:20:43;283448.00;0.94;489.47;0.00;0.00;0.62;;;;;18.80;1.00;;;;;;2268361;61;966;-88
2022/09/20 11:23:19;289389.00;0.96;499.68;0.00;0.00;0.62;;;;;17.50;1.00;;;;;;2268278;61;2353;-87
2022/09/20 11:28:29;943171.00;3.14;1632.07;59876.00;0.20;104.26;;;;;16.20;1.00;;;;;;2269961;61;1210;-88
2022/09/20 11:31:04;685108.00;2.28;1181.42;160274.00;0.53;277.51;;;;;16.30;1.00;;;;;;2268363;61;1461;-87
2022/09/20 11:33:37;582537.00;1.94;1004.08;93251.00;0.31;161.92;;;;;16.50;1.00;;;;;;2268406;61;1008;-87
2022/09/20 11:36:10;485707.00;1.62;837.22;90545.00;0.30;157.25;;;;;16.60;1.00;;;;;;2268385;61;1433;-88
2022/09/20 11:38:46;683635.00;2.28;1178.87;59756.00;0.20;104.05;;;;;16.80;1.00;;;;;;2273548;40;3606;-88
2022/09/20 11:41:19;511485.00;1.70;881.60;46930.00;0.16;81.88;;;;;17.20;1.00;;;;;;2271663;61;1931;-87
2022/09/20 11:43:48;377595.00;1.26;651.29;70782.00;0.24;123.11;;;;;17.60;1.00;;;;;;2268228;61;1024;-88